createdAt,value
2023-10-29T00:00:44.652Z,94549.84
2023-10-29T00:01:41.499Z,94545.94
2023-10-29T00:02:38.648Z,94601.88
2023-10-29T00:03:36.035Z,94599.53
2023-10-29T00:04:36.799Z,94517.66
2023-10-29T00:05:33.593Z,94381.06
2023-10-29T00:06:30.327Z,94606.13
2023-10-29T00:07:27.061Z,94562.06
2023-10-29T00:08:23.875Z,94504.72
2023-10-29T00:09:21.089Z,94501.88
2023-10-29T00:10:18.212Z,94592.44
2023-10-29T00:11:14.949Z,94473.94
2023-10-29T00:12:11.675Z,94500.88
2023-10-29T00:13:08.471Z,94584.66
2023-10-29T00:14:05.444Z,94495.72
2023-10-29T00:15:02.853Z,94498.38
2023-10-29T00:15:59.670Z,94477.88
2023-10-29T00:16:56.435Z,94605.84
2023-10-29T00:17:53.266Z,94427.81
2023-10-29T00:18:50.023Z,94612.59
2023-10-29T00:19:47.576Z,94615.44
2023-10-29T00:20:44.444Z,94404.94
2023-10-29T00:21:41.308Z,94492.41
2023-10-29T00:22:38.076Z,94601.63
2023-10-29T00:23:35.163Z,94516.63
2023-10-29T00:24:32.008Z,94613.41
2023-10-29T00:25:28.775Z,94410.63
2023-10-29T00:26:25.533Z,94592.78
2023-10-29T00:27:22.373Z,94578.38
2023-10-29T00:28:19.086Z,94610.78
2023-10-29T00:29:15.849Z,94578.53
2023-10-29T00:30:12.920Z,94609.97
2023-10-29T00:31:09.693Z,94579.44
2023-10-29T00:32:25.306Z,94530.56
2023-10-29T00:33:22.465Z,94612.09
2023-10-29T00:34:19.368Z,94602.59
2023-10-29T00:35:16.139Z,94610.63
2023-10-29T00:36:13.332Z,94602.69
2023-10-29T00:37:10.104Z,94530.75
2023-10-29T00:38:06.987Z,94473.25
2023-10-29T00:39:04.610Z,94575.31
2023-10-29T00:40:01.362Z,94589.00
2023-10-29T00:41:00.927Z,94535.31
2023-10-29T00:41:57.798Z,94498.38
2023-10-29T00:42:54.648Z,94577.91
2023-10-29T00:43:52.384Z,94569.91
2023-10-29T00:44:49.452Z,94622.44
2023-10-29T00:45:54.020Z,94512.00
2023-10-29T00:46:51.149Z,94605.44
2023-10-29T00:47:48.241Z,94620.28
2023-10-29T00:48:45.654Z,94607.53
2023-10-29T00:49:42.721Z,94569.19
2023-10-29T00:50:40.912Z,94583.31
2023-10-29T00:51:37.999Z,94544.88
2023-10-29T00:52:36.126Z,94615.47
2023-10-29T00:53:35.048Z,94554.47
2023-10-29T00:54:32.465Z,94618.59
2023-10-29T00:55:29.532Z,94625.84
2023-10-29T00:56:26.667Z,94604.09
2023-10-29T00:57:23.633Z,94605.72
2023-10-29T00:58:21.506Z,94610.97
2023-10-29T00:59:18.409Z,94622.66
2023-10-29T01:00:19.113Z,94567.06
2023-10-29T01:01:16.390Z,94604.97
2023-10-29T01:02:13.907Z,94621.25
2023-10-29T01:03:10.810Z,94621.13
2023-10-29T01:04:08.130Z,94602.88
2023-10-29T01:05:06.283Z,94626.28
2023-10-29T01:06:03.895Z,94606.97
2023-10-29T01:07:00.829Z,94509.22
2023-10-29T01:07:57.850Z,94607.56
2023-10-29T01:08:56.337Z,94513.91
2023-10-29T01:09:53.848Z,94466.00
2023-10-29T01:10:52.650Z,94529.03
2023-10-29T01:11:49.534Z,94445.75
2023-10-29T01:12:46.735Z,94546.03
2023-10-29T01:13:43.512Z,94618.06
2023-10-29T01:14:40.314Z,94515.94
2023-10-29T01:15:37.419Z,94613.28
2023-10-29T01:16:34.203Z,94504.03
2023-10-29T01:17:31.154Z,94529.53
2023-10-29T01:18:28.073Z,94615.63
2023-10-29T01:19:24.838Z,94618.72
2023-10-29T01:20:21.670Z,94531.06
2023-10-29T01:21:18.561Z,94623.13
2023-10-29T01:22:15.351Z,94520.28
2023-10-29T01:23:13.123Z,94548.34
2023-10-29T01:24:10.029Z,94634.75
2023-10-29T01:25:10.826Z,94611.47
2023-10-29T01:26:07.576Z,94633.03
2023-10-29T01:27:04.749Z,94601.06
2023-10-29T01:28:01.529Z,94603.28
2023-10-29T01:28:58.319Z,94620.53
2023-10-29T01:29:55.077Z,94635.00
2023-10-29T01:30:51.921Z,94611.44
2023-10-29T01:31:49.944Z,94513.69
2023-10-29T01:32:46.988Z,94622.44
2023-10-29T01:33:43.775Z,94623.97
2023-10-29T01:34:40.561Z,94615.91
2023-10-29T01:35:37.477Z,94636.34
2023-10-29T01:36:34.277Z,94551.13
2023-10-29T01:37:31.223Z,94616.44
2023-10-29T01:38:28.112Z,94640.34
2023-10-29T01:39:24.889Z,94642.22
2023-10-29T01:40:21.873Z,94392.25
2023-10-29T01:41:18.622Z,94622.91
2023-10-29T01:42:15.356Z,94646.97
2023-10-29T01:43:12.109Z,94550.09
2023-10-29T01:44:08.869Z,94538.16
2023-10-29T01:45:05.830Z,94639.56
2023-10-29T01:46:02.636Z,94605.28
2023-10-29T01:46:59.461Z,94521.72
2023-10-29T01:47:56.328Z,94623.09
2023-10-29T01:48:53.190Z,94637.13
2023-10-29T01:49:49.955Z,94593.56
2023-10-29T01:50:48.646Z,94518.44
2023-10-29T01:51:45.488Z,94613.13
2023-10-29T01:52:42.287Z,94621.91
2023-10-29T01:53:39.211Z,94633.44
2023-10-29T01:54:36.251Z,94617.94
2023-10-29T01:55:37.545Z,94389.59
2023-10-29T01:56:35.893Z,94642.66
2023-10-29T01:57:37.691Z,94615.88
2023-10-29T01:58:34.927Z,94544.22
2023-10-29T01:59:31.891Z,94482.22
2023-10-29T02:00:28.663Z,94639.91
2023-10-29T02:01:25.508Z,94661.13
2023-10-29T02:02:22.450Z,94642.34
2023-10-29T02:03:19.344Z,94663.97
2023-10-29T02:04:16.283Z,94532.84
2023-10-29T02:05:13.164Z,94553.75
2023-10-29T02:06:18.070Z,94590.53
2023-10-29T02:07:14.849Z,94626.44
2023-10-29T02:08:11.646Z,94648.81
2023-10-29T02:09:10.101Z,94548.22
2023-10-29T02:10:07.705Z,94553.94
2023-10-29T02:11:04.445Z,94660.34
2023-10-29T02:12:01.276Z,94573.63
2023-10-29T02:12:58.117Z,94536.38
2023-10-29T02:13:54.934Z,94570.78
2023-10-29T02:14:51.804Z,94620.66
2023-10-29T02:15:48.522Z,94548.53
2023-10-29T02:16:45.320Z,94636.03
2023-10-29T02:17:42.129Z,94654.16
2023-10-29T02:18:38.981Z,94564.72
2023-10-29T02:19:36.039Z,94528.47
2023-10-29T02:20:32.821Z,94439.53
2023-10-29T02:21:29.762Z,94622.09
2023-10-29T02:22:29.090Z,94515.69
2023-10-29T02:23:25.854Z,94659.09
2023-10-29T02:24:22.611Z,94666.59
2023-10-29T02:25:19.357Z,94594.06
2023-10-29T02:26:16.170Z,94557.63
2023-10-29T02:27:13.093Z,94550.97
2023-10-29T02:28:10.043Z,94651.44
2023-10-29T02:29:06.913Z,94652.81
2023-10-29T02:30:03.950Z,94648.06
2023-10-29T02:31:00.695Z,94597.41
2023-10-29T02:31:57.427Z,94454.19
2023-10-29T02:32:54.640Z,94531.44
2023-10-29T02:33:51.457Z,94644.09
2023-10-29T02:34:48.402Z,94544.34
2023-10-29T02:35:45.708Z,94602.66
2023-10-29T02:36:42.544Z,94584.22
2023-10-29T02:37:39.308Z,94614.13
2023-10-29T02:38:36.117Z,94644.63
2023-10-29T02:39:32.886Z,94586.25
2023-10-29T02:40:29.638Z,94652.00
2023-10-29T02:41:26.514Z,94652.56
2023-10-29T02:42:23.382Z,94628.78
2023-10-29T02:43:20.147Z,94649.25
2023-10-29T02:44:16.923Z,94550.97
2023-10-29T02:45:13.693Z,94644.63
2023-10-29T02:46:12.071Z,94544.78
2023-10-29T02:47:08.939Z,94626.44
2023-10-29T02:48:06.080Z,94621.13
2023-10-29T02:49:03.378Z,94534.06
2023-10-29T02:50:00.208Z,94551.34
2023-10-29T02:50:57.090Z,94564.66
2023-10-29T02:51:53.850Z,94631.56
2023-10-29T02:52:50.621Z,94636.53
2023-10-29T02:53:47.498Z,94557.44
2023-10-29T02:54:44.363Z,94584.03
2023-10-29T02:55:41.095Z,94664.94
2023-10-29T02:56:38.848Z,94665.75
2023-10-29T02:57:35.617Z,94668.94
2023-10-29T02:58:32.350Z,94660.53
2023-10-29T02:59:29.315Z,94669.63
2023-10-29T03:00:26.080Z,94588.78
2023-10-29T03:01:22.903Z,94590.91
2023-10-29T03:02:19.794Z,94656.47
2023-10-29T03:03:16.695Z,94563.25
2023-10-29T03:04:13.679Z,94664.59
2023-10-29T03:05:11.970Z,94627.94
2023-10-29T03:06:10.042Z,94638.41
2023-10-29T03:07:06.833Z,94668.81
2023-10-29T03:08:04.749Z,94690.22
2023-10-29T03:09:01.552Z,94663.94
2023-10-29T03:09:58.311Z,94634.06
2023-10-29T03:10:55.104Z,94654.53
2023-10-29T03:11:51.817Z,94618.25
2023-10-29T03:12:48.563Z,94678.16
2023-10-29T03:13:45.369Z,94670.66
2023-10-29T03:14:42.440Z,94613.59
2023-10-29T03:15:39.235Z,94589.56
2023-10-29T03:16:36.098Z,94686.47
2023-10-29T03:17:32.905Z,94683.69
2023-10-29T03:18:30.743Z,94570.34
2023-10-29T03:19:27.654Z,94682.47
2023-10-29T03:20:24.593Z,94662.13
2023-10-29T03:21:21.423Z,94657.38
2023-10-29T03:22:18.161Z,94671.88
2023-10-29T03:23:14.930Z,94634.72
2023-10-29T03:24:11.745Z,94643.53
2023-10-29T03:25:09.589Z,94579.19
2023-10-29T03:26:06.436Z,94597.91
2023-10-29T03:27:03.286Z,94607.94
2023-10-29T03:28:00.341Z,94683.97
2023-10-29T03:28:57.095Z,94578.25
2023-10-29T03:29:54.448Z,94490.63
2023-10-29T03:30:51.263Z,94683.09
2023-10-29T03:31:49.115Z,94556.59
2023-10-29T03:32:46.001Z,94698.06
2023-10-29T03:33:43.363Z,94681.63
2023-10-29T03:34:40.122Z,94667.09
2023-10-29T03:35:36.951Z,94512.31
2023-10-29T03:36:33.741Z,94681.75
2023-10-29T03:37:30.572Z,94690.91
2023-10-29T03:38:27.389Z,94674.22
2023-10-29T03:39:24.197Z,94593.88
2023-10-29T03:40:21.414Z,94676.31
2023-10-29T03:41:23.964Z,94622.38
2023-10-29T03:42:21.019Z,94681.78
2023-10-29T03:43:17.887Z,94501.72
2023-10-29T03:44:15.065Z,94696.66
2023-10-29T03:45:11.931Z,94700.13
2023-10-29T03:46:11.600Z,94635.72
2023-10-29T03:47:08.800Z,94700.28
2023-10-29T03:48:05.795Z,94576.66
2023-10-29T03:49:02.627Z,94600.75
2023-10-29T03:49:59.331Z,94660.13
2023-10-29T03:50:56.179Z,94702.47
2023-10-29T03:51:52.929Z,94695.66
2023-10-29T03:52:49.680Z,94660.69
2023-10-29T03:53:46.485Z,94687.84
2023-10-29T03:54:43.276Z,94700.34
2023-10-29T03:55:39.989Z,94668.72
2023-10-29T03:56:36.770Z,94695.38
2023-10-29T03:57:33.625Z,94701.59
2023-10-29T03:58:30.428Z,94702.19
2023-10-29T03:59:27.344Z,94579.78
2023-10-29T04:00:24.206Z,94681.59
2023-10-29T04:01:21.091Z,94707.03
2023-10-29T04:02:17.859Z,94662.66
2023-10-29T04:03:14.597Z,94570.75
2023-10-29T04:04:11.443Z,94679.75
2023-10-29T04:05:10.020Z,94723.31
2023-10-29T04:06:13.988Z,94727.44
2023-10-29T04:07:10.786Z,94758.06
2023-10-29T04:08:07.537Z,94708.69
2023-10-29T04:09:04.255Z,94705.06
2023-10-29T04:10:01.470Z,94688.34
2023-10-29T04:10:58.320Z,94710.94
2023-10-29T04:11:57.233Z,94461.59
2023-10-29T04:12:54.147Z,94612.56
2023-10-29T04:13:50.856Z,94689.78
2023-10-29T04:14:47.823Z,94718.09
2023-10-29T04:15:44.760Z,94740.53
2023-10-29T04:16:41.568Z,94679.31
2023-10-29T04:17:38.354Z,94586.91
2023-10-29T04:18:35.469Z,94610.59
2023-10-29T04:19:32.332Z,94694.88
2023-10-29T04:20:29.118Z,94699.47
2023-10-29T04:21:25.881Z,94657.94
2023-10-29T04:22:24.004Z,94631.25
2023-10-29T04:23:20.925Z,94510.50
2023-10-29T04:24:17.700Z,94674.34
2023-10-29T04:25:14.499Z,94703.63
2023-10-29T04:26:11.234Z,94620.31
2023-10-29T04:27:08.063Z,94593.78
2023-10-29T04:28:04.987Z,94659.75
2023-10-29T04:29:01.759Z,94567.53
2023-10-29T04:29:58.660Z,94612.25
2023-10-29T04:30:57.017Z,94710.59
2023-10-29T04:31:54.012Z,94713.94
2023-10-29T04:32:50.912Z,94580.69
2023-10-29T04:33:50.000Z,94696.75
2023-10-29T04:34:47.055Z,94616.09
2023-10-29T04:35:43.988Z,94584.47
2023-10-29T04:36:43.341Z,94681.56
2023-10-29T04:37:40.054Z,94586.63
2023-10-29T04:38:38.066Z,94712.22
2023-10-29T04:39:35.010Z,94589.16
2023-10-29T04:40:31.827Z,94521.06
2023-10-29T04:41:28.629Z,94694.19
2023-10-29T04:42:25.379Z,94639.84
2023-10-29T04:43:22.129Z,94628.63
2023-10-29T04:44:18.903Z,94688.69
2023-10-29T04:45:15.765Z,94528.69
2023-10-29T04:46:12.694Z,94598.13
2023-10-29T04:47:09.492Z,94716.94
2023-10-29T04:48:06.361Z,94713.13
2023-10-29T04:49:03.564Z,94637.41
2023-10-29T04:50:00.365Z,94601.47
2023-10-29T04:50:57.234Z,94695.00
2023-10-29T04:51:54.054Z,94715.56
2023-10-29T04:52:50.859Z,94629.78
2023-10-29T04:53:47.761Z,94647.41
2023-10-29T04:54:45.044Z,94722.09
2023-10-29T04:55:41.999Z,94705.91
2023-10-29T04:56:39.631Z,94618.31
2023-10-29T04:57:36.459Z,94720.56
2023-10-29T04:58:33.393Z,94635.06
2023-10-29T04:59:30.446Z,94663.97
2023-10-29T05:00:27.360Z,94630.91
2023-10-29T05:01:24.198Z,94695.59
2023-10-29T05:02:23.105Z,94619.88
2023-10-29T05:03:20.318Z,94711.16
2023-10-29T05:04:17.327Z,94642.13
2023-10-29T05:05:14.251Z,94711.19
2023-10-29T05:06:21.255Z,94713.81
2023-10-29T05:07:18.444Z,94740.44
2023-10-29T05:08:15.185Z,94631.03
2023-10-29T05:09:11.953Z,94658.78
2023-10-29T05:10:09.040Z,94726.53
2023-10-29T05:11:06.122Z,94644.66
2023-10-29T05:12:04.000Z,94741.44
2023-10-29T05:13:01.130Z,94731.22
2023-10-29T05:13:57.953Z,94608.88
2023-10-29T05:14:54.853Z,94766.69
2023-10-29T05:15:51.852Z,94740.44
2023-10-29T05:16:48.671Z,94750.16
2023-10-29T05:17:45.583Z,94727.78
2023-10-29T05:18:42.971Z,94686.47
2023-10-29T05:19:40.371Z,94769.47
2023-10-29T05:20:38.524Z,94776.28
2023-10-29T05:21:35.486Z,94745.13
2023-10-29T05:22:32.345Z,94762.47
2023-10-29T05:23:29.273Z,94766.94
2023-10-29T05:24:26.025Z,94774.84
2023-10-29T05:25:22.823Z,94748.81
2023-10-29T05:26:22.238Z,94787.72
2023-10-29T05:27:20.062Z,94772.22
2023-10-29T05:28:17.831Z,94597.25
2023-10-29T05:29:14.642Z,94771.59
2023-10-29T05:30:11.655Z,94752.44
2023-10-29T05:31:08.544Z,94692.81
2023-10-29T05:32:06.179Z,94678.69
2023-10-29T05:33:03.466Z,94779.78
2023-10-29T05:34:01.224Z,94755.28
2023-10-29T05:34:58.003Z,94787.34
2023-10-29T05:35:55.442Z,94719.13
2023-10-29T05:36:52.376Z,94787.69
2023-10-29T05:37:49.170Z,94765.41
2023-10-29T05:38:45.996Z,94769.63
2023-10-29T05:39:43.138Z,94686.03
2023-10-29T05:40:39.912Z,94787.72
2023-10-29T05:41:36.897Z,94695.38
2023-10-29T05:42:33.682Z,94790.25
2023-10-29T05:43:30.396Z,94690.69
2023-10-29T05:44:27.243Z,94795.69
2023-10-29T05:45:24.068Z,94765.41
2023-10-29T05:46:23.650Z,94785.41
2023-10-29T05:47:20.638Z,94775.19
2023-10-29T05:48:17.487Z,94723.47
2023-10-29T05:49:14.304Z,94780.53
2023-10-29T05:50:11.091Z,94797.72
2023-10-29T05:51:11.970Z,94616.34
2023-10-29T05:52:08.759Z,94703.44
2023-10-29T05:53:05.489Z,94807.09
2023-10-29T05:54:02.288Z,94718.81
2023-10-29T05:55:01.942Z,94681.53
2023-10-29T05:56:01.278Z,94749.50
2023-10-29T05:56:58.096Z,94718.06
2023-10-29T05:57:55.017Z,94562.84
2023-10-29T05:58:51.782Z,94779.22
2023-10-29T05:59:48.609Z,94806.50
2023-10-29T06:00:46.243Z,94828.31
2023-10-29T06:01:43.246Z,94826.25
2023-10-29T06:02:40.228Z,94695.81
2023-10-29T06:03:37.285Z,94707.63
2023-10-29T06:04:34.293Z,94832.63
2023-10-29T06:05:31.262Z,94735.13
2023-10-29T06:06:28.026Z,94822.69
2023-10-29T06:07:24.824Z,94838.00
2023-10-29T06:08:23.094Z,94737.88
2023-10-29T06:09:24.271Z,94822.28
2023-10-29T06:10:21.594Z,94824.91
2023-10-29T06:11:18.450Z,94832.59
2023-10-29T06:12:15.238Z,94809.50
2023-10-29T06:13:12.087Z,94717.59
2023-10-29T06:14:09.592Z,94764.88
2023-10-29T06:15:09.605Z,94799.66
2023-10-29T06:16:09.706Z,94650.41
2023-10-29T06:17:19.603Z,94791.78
2023-10-29T06:18:22.757Z,94805.41
2023-10-29T06:19:19.539Z,94712.25
2023-10-29T06:20:19.941Z,94808.63
2023-10-29T06:21:20.066Z,94649.91
2023-10-29T06:22:16.823Z,94752.34
2023-10-29T06:23:13.672Z,94833.84
2023-10-29T06:24:10.596Z,94714.22
2023-10-29T06:25:27.634Z,94833.78
2023-10-29T06:26:24.816Z,94831.78
2023-10-29T06:27:21.650Z,94774.59
2023-10-29T06:28:18.407Z,94759.25
2023-10-29T06:29:15.248Z,94792.84
2023-10-29T06:30:12.467Z,94726.53
2023-10-29T06:31:09.410Z,94801.09
2023-10-29T06:32:06.542Z,94835.13
2023-10-29T06:33:03.770Z,94846.72
2023-10-29T06:34:01.358Z,94780.56
2023-10-29T06:34:58.102Z,94694.78
2023-10-29T06:35:58.823Z,94866.47
2023-10-29T06:36:55.582Z,94847.06
2023-10-29T06:37:53.523Z,94856.66
2023-10-29T06:38:52.272Z,94829.53
2023-10-29T06:39:49.709Z,94835.00
2023-10-29T06:40:46.495Z,94659.19
2023-10-29T06:41:43.299Z,94778.09
2023-10-29T06:42:40.240Z,94765.63
2023-10-29T06:43:37.029Z,94781.31
2023-10-29T06:44:33.814Z,94751.09
2023-10-29T06:45:30.590Z,94802.03
2023-10-29T06:46:27.997Z,94818.16
2023-10-29T06:47:24.828Z,94845.09
2023-10-29T06:48:21.723Z,94814.63
2023-10-29T06:49:18.823Z,94832.78
2023-10-29T06:50:16.095Z,94798.88
2023-10-29T06:51:12.916Z,94799.06
2023-10-29T06:52:11.838Z,94870.97
2023-10-29T06:53:08.733Z,94879.06
2023-10-29T06:54:06.310Z,94707.84
2023-10-29T06:55:03.256Z,94880.09
2023-10-29T06:56:05.373Z,94784.91
2023-10-29T06:57:05.688Z,94806.63
2023-10-29T06:58:02.620Z,94807.69
2023-10-29T06:58:59.341Z,94796.19
2023-10-29T06:59:57.619Z,94853.47
2023-10-29T07:00:54.545Z,94880.09
2023-10-29T07:01:51.639Z,94810.09
2023-10-29T07:02:48.510Z,94890.69
2023-10-29T07:03:45.640Z,94782.19
2023-10-29T07:04:43.238Z,94899.91
2023-10-29T07:05:40.020Z,94899.31
2023-10-29T07:06:36.887Z,94826.22
2023-10-29T07:07:35.976Z,94878.94
2023-10-29T07:08:33.844Z,94834.22
2023-10-29T07:09:30.704Z,94807.66
2023-10-29T07:10:28.108Z,94845.44
2023-10-29T07:11:25.003Z,94877.16
2023-10-29T07:12:22.080Z,94822.31
2023-10-29T07:13:18.858Z,94857.09
2023-10-29T07:14:15.650Z,94871.09
2023-10-29T07:15:12.623Z,94853.09
2023-10-29T07:16:10.264Z,94776.38
2023-10-29T07:17:07.070Z,94836.88
2023-10-29T07:18:04.994Z,94886.13
2023-10-29T07:19:01.901Z,94725.69
2023-10-29T07:20:01.163Z,94801.97
2023-10-29T07:20:57.967Z,94877.97
2023-10-29T07:21:54.984Z,94817.44
2023-10-29T07:22:51.738Z,94887.41
2023-10-29T07:23:48.512Z,94886.94
2023-10-29T07:24:45.307Z,94889.94
2023-10-29T07:25:42.087Z,94810.63
2023-10-29T07:26:39.234Z,94905.13
2023-10-29T07:27:35.994Z,94896.69
2023-10-29T07:28:32.876Z,94790.38
2023-10-29T07:29:29.814Z,94677.47
2023-10-29T07:30:26.763Z,94861.63
2023-10-29T07:31:23.640Z,94819.19
2023-10-29T07:32:20.409Z,94902.63
2023-10-29T07:33:17.292Z,94901.50
2023-10-29T07:34:14.913Z,94828.19
2023-10-29T07:35:11.652Z,94815.41
2023-10-29T07:36:09.179Z,94888.53
2023-10-29T07:37:06.007Z,94856.25
2023-10-29T07:38:02.799Z,94741.59
2023-10-29T07:38:59.701Z,94751.28
2023-10-29T07:39:56.515Z,94793.47
2023-10-29T07:40:53.273Z,94883.97
2023-10-29T07:41:50.147Z,94826.72
2023-10-29T07:42:46.934Z,94820.56
2023-10-29T07:43:43.665Z,94905.72
2023-10-29T07:44:40.435Z,94897.09
2023-10-29T07:45:37.291Z,94899.91
2023-10-29T07:46:34.149Z,94803.56
2023-10-29T07:47:32.549Z,94898.94
2023-10-29T07:48:29.309Z,94801.00
2023-10-29T07:49:26.113Z,94896.41
2023-10-29T07:50:22.906Z,94894.88
2023-10-29T07:51:19.956Z,94867.31
2023-10-29T07:52:17.220Z,94814.28
2023-10-29T07:53:14.027Z,94891.28
2023-10-29T07:54:10.816Z,94869.59
2023-10-29T07:55:09.125Z,94782.56
2023-10-29T07:56:13.832Z,94796.97
2023-10-29T07:57:11.607Z,94859.03
2023-10-29T07:58:08.375Z,94784.25
2023-10-29T07:59:05.174Z,94884.00
2023-10-29T08:00:02.120Z,94787.34
2023-10-29T08:00:58.936Z,94890.41
2023-10-29T08:01:55.743Z,94727.50
2023-10-29T08:02:52.621Z,94840.78
2023-10-29T08:03:50.295Z,94891.97
2023-10-29T08:04:47.482Z,94806.72
2023-10-29T08:05:52.126Z,94854.84
2023-10-29T08:06:49.056Z,94878.34
2023-10-29T08:07:45.961Z,94680.28
2023-10-29T08:08:42.868Z,94878.19
2023-10-29T08:09:39.691Z,94886.75
2023-10-29T08:10:36.601Z,94628.00
2023-10-29T08:11:36.640Z,94808.19
2023-10-29T08:12:35.569Z,94768.16
2023-10-29T08:13:32.539Z,94819.69
2023-10-29T08:14:29.508Z,94909.63
2023-10-29T08:15:26.215Z,94912.84
2023-10-29T08:16:23.201Z,94741.34
2023-10-29T08:17:20.175Z,94907.91
2023-10-29T08:18:17.185Z,94833.66
2023-10-29T08:19:14.099Z,94881.94
2023-10-29T08:20:12.557Z,94869.97
2023-10-29T08:21:09.823Z,94834.56
2023-10-29T08:22:06.697Z,94887.03
2023-10-29T08:23:03.437Z,94888.44
2023-10-29T08:24:00.438Z,94895.97
2023-10-29T08:24:57.385Z,94872.66
2023-10-29T08:25:55.798Z,94837.09
2023-10-29T08:26:52.598Z,94813.06
2023-10-29T08:27:49.418Z,94862.47
2023-10-29T08:28:46.322Z,94833.31
2023-10-29T08:29:44.744Z,94908.91
2023-10-29T08:30:41.495Z,94870.19
2023-10-29T08:31:38.293Z,94840.22
2023-10-29T08:32:35.487Z,94817.09
2023-10-29T08:33:32.514Z,94781.94
2023-10-29T08:34:30.335Z,94658.00
2023-10-29T08:35:27.032Z,94830.75
2023-10-29T08:36:25.315Z,94811.81
2023-10-29T08:37:22.224Z,94902.63
2023-10-29T08:38:19.094Z,94715.16
2023-10-29T08:39:15.800Z,94900.53
2023-10-29T08:40:13.264Z,94898.44
2023-10-29T08:41:17.884Z,94909.84
2023-10-29T08:42:14.610Z,94910.91
2023-10-29T08:43:11.369Z,94894.97
2023-10-29T08:44:08.128Z,94807.25
2023-10-29T08:45:05.932Z,94748.50
2023-10-29T08:46:03.238Z,94894.22
2023-10-29T08:47:00.218Z,94919.31
2023-10-29T08:47:57.049Z,94872.81
2023-10-29T08:48:53.817Z,94911.53
2023-10-29T08:49:51.910Z,94920.91
2023-10-29T08:50:48.735Z,94912.94
2023-10-29T08:51:45.532Z,94898.78
2023-10-29T08:52:42.290Z,94854.22
2023-10-29T08:53:39.109Z,94837.94
2023-10-29T08:54:36.466Z,94919.97
2023-10-29T08:55:36.783Z,94797.13
2023-10-29T08:56:35.129Z,94695.25
2023-10-29T08:57:31.900Z,94920.53
2023-10-29T08:58:28.636Z,94867.34
2023-10-29T08:59:25.569Z,94821.19
2023-10-29T09:00:22.564Z,94819.63
2023-10-29T09:01:21.764Z,94915.78
2023-10-29T09:02:18.597Z,94873.63
2023-10-29T09:03:16.304Z,94908.34
2023-10-29T09:04:13.456Z,94837.34
2023-10-29T09:05:11.296Z,94891.53
2023-10-29T09:06:08.642Z,94911.03
2023-10-29T09:07:05.987Z,94837.63
2023-10-29T09:08:02.870Z,94906.75
2023-10-29T09:08:59.638Z,94899.81
2023-10-29T09:09:56.431Z,94911.56
2023-10-29T09:10:53.250Z,94915.06
2023-10-29T09:11:54.687Z,94906.78
2023-10-29T09:12:51.639Z,94758.75
2023-10-29T09:13:48.419Z,94738.19
2023-10-29T09:14:45.268Z,94827.00
2023-10-29T09:15:43.187Z,94895.06
2023-10-29T09:16:43.015Z,94890.78
2023-10-29T09:17:40.343Z,94867.00
2023-10-29T09:18:37.482Z,94839.03
2023-10-29T09:19:34.945Z,94815.84
2023-10-29T09:20:32.969Z,94892.94
2023-10-29T09:21:30.001Z,94880.38
2023-10-29T09:22:26.944Z,94894.78
2023-10-29T09:23:24.435Z,94869.97
2023-10-29T09:24:21.228Z,94826.78
2023-10-29T09:25:17.933Z,94909.47
2023-10-29T09:26:16.710Z,94907.84
2023-10-29T09:27:14.605Z,94817.69
2023-10-29T09:28:12.569Z,94815.56
2023-10-29T09:29:09.492Z,94871.81
2023-10-29T09:30:07.927Z,94895.56
2023-10-29T09:31:05.453Z,94880.59
2023-10-29T09:32:05.931Z,94881.44
2023-10-29T09:33:02.887Z,94860.34
2023-10-29T09:33:59.823Z,94872.09
2023-10-29T09:34:56.572Z,94814.47
2023-10-29T09:35:53.331Z,94835.78
2023-10-29T09:36:50.142Z,94910.72
2023-10-29T09:37:46.865Z,94880.56
2023-10-29T09:38:44.274Z,94813.41
2023-10-29T09:39:41.067Z,94828.84
2023-10-29T09:40:37.935Z,94798.47
2023-10-29T09:41:38.309Z,94817.66
2023-10-29T09:42:41.814Z,94885.31
2023-10-29T09:43:42.053Z,94824.31
2023-10-29T09:44:43.025Z,94760.06
2023-10-29T09:45:46.461Z,94856.50
2023-10-29T09:46:44.646Z,94897.03
2023-10-29T09:47:41.483Z,94868.25
2023-10-29T09:48:39.517Z,94818.94
2023-10-29T09:49:39.043Z,94781.63
2023-10-29T09:50:35.876Z,94879.47
2023-10-29T09:51:34.273Z,94857.84
2023-10-29T09:52:34.954Z,94725.91
2023-10-29T09:53:34.945Z,94886.94
2023-10-29T09:54:31.815Z,94859.16
2023-10-29T09:55:30.639Z,94785.38
2023-10-29T09:56:28.185Z,94751.53
2023-10-29T09:57:25.424Z,94837.03
2023-10-29T09:58:24.929Z,94868.19
2023-10-29T09:59:40.207Z,94860.72
2023-10-29T10:00:37.732Z,94858.59
2023-10-29T10:01:41.959Z,94879.88
2023-10-29T10:02:58.275Z,94887.09
2023-10-29T10:03:55.337Z,94775.16
2023-10-29T10:04:52.477Z,94860.44
2023-10-29T10:05:50.797Z,94884.63
2023-10-29T10:06:49.882Z,94800.41
2023-10-29T10:07:46.627Z,94848.66
2023-10-29T10:08:43.407Z,94865.19
2023-10-29T10:09:56.794Z,94883.59
2023-10-29T10:10:54.412Z,94883.03
2023-10-29T10:12:06.233Z,94776.63
2023-10-29T10:13:03.118Z,94833.06
2023-10-29T10:13:59.891Z,94871.34
2023-10-29T10:15:05.850Z,94833.28
2023-10-29T10:16:13.910Z,94795.50
2023-10-29T10:17:12.424Z,94861.06
2023-10-29T10:18:09.672Z,94857.41
2023-10-29T10:19:06.529Z,94866.69
2023-10-29T10:20:08.722Z,94705.25
2023-10-29T10:21:05.561Z,94797.16
2023-10-29T10:22:02.344Z,94859.97
2023-10-29T10:23:01.342Z,94874.81
2023-10-29T10:24:16.873Z,94874.28
2023-10-29T10:25:21.046Z,94860.94
2023-10-29T10:26:28.744Z,94855.53
2023-10-29T10:27:25.476Z,94872.66
2023-10-29T10:28:22.263Z,94856.69
2023-10-29T10:29:18.993Z,94773.03
2023-10-29T10:30:32.304Z,94770.38
2023-10-29T10:31:32.004Z,94872.66
2023-10-29T10:32:28.892Z,94792.72
2023-10-29T10:33:26.506Z,94765.28
2023-10-29T10:34:23.620Z,94857.88
2023-10-29T10:35:20.549Z,94857.59
2023-10-29T10:36:31.770Z,94793.22
2023-10-29T10:37:28.553Z,94852.78
2023-10-29T10:38:25.380Z,94789.41
2023-10-29T10:39:23.811Z,94854.09
2023-10-29T10:40:25.416Z,94809.06
2023-10-29T10:41:22.233Z,94842.78
2023-10-29T10:42:26.335Z,94855.72
2023-10-29T10:43:23.794Z,94838.13
2023-10-29T10:44:21.297Z,94784.66
2023-10-29T10:45:21.529Z,94835.56
2023-10-29T10:46:20.065Z,94832.78
2023-10-29T10:47:19.426Z,94761.09
2023-10-29T10:48:18.698Z,94773.91
2023-10-29T10:49:16.161Z,94698.84
2023-10-29T10:50:14.469Z,94856.06
2023-10-29T10:51:12.455Z,94770.56
2023-10-29T10:52:12.636Z,94865.91
2023-10-29T10:53:10.823Z,94849.38
2023-10-29T10:54:09.558Z,94781.50
2023-10-29T10:55:10.703Z,94777.56
2023-10-29T10:56:15.422Z,94858.53
2023-10-29T10:57:13.756Z,94753.56
2023-10-29T10:58:14.198Z,94852.09
2023-10-29T10:59:11.171Z,94850.69
2023-10-29T11:00:11.838Z,94857.59
2023-10-29T11:01:10.537Z,94647.53
2023-10-29T11:02:11.532Z,94770.19
2023-10-29T11:03:25.224Z,94763.59
2023-10-29T11:04:28.940Z,94821.59
2023-10-29T11:05:31.829Z,94847.63
2023-10-29T11:06:29.229Z,94839.22
2023-10-29T11:07:26.055Z,94840.06
2023-10-29T11:08:25.056Z,94848.53
2023-10-29T11:09:22.865Z,94847.09
2023-10-29T11:10:19.770Z,94737.81
2023-10-29T11:11:18.692Z,94831.50
2023-10-29T11:12:15.596Z,94758.81
2023-10-29T11:13:18.543Z,94840.50
2023-10-29T11:14:19.447Z,94844.78
2023-10-29T11:15:21.220Z,94783.53
2023-10-29T11:16:24.033Z,94798.44
2023-10-29T11:17:59.707Z,94844.16
2023-10-29T11:18:56.656Z,94762.25
2023-10-29T11:19:53.431Z,94779.38